createdAt,value
2017-06-23T00:02:07.838Z,45.17
2017-06-23T00:04:36.032Z,44.80
2017-06-23T00:07:04.239Z,46.47
2017-06-23T00:09:32.519Z,42.45
2017-06-23T00:12:00.710Z,45.12
2017-06-23T00:14:29.481Z,47.58
2017-06-23T00:16:57.711Z,47.33
2017-06-23T00:19:25.905Z,45.65
2017-06-23T00:21:54.867Z,45.15
2017-06-23T00:24:23.101Z,45.70
2017-06-23T00:26:51.275Z,44.58
2017-06-23T00:29:19.463Z,43.20
2017-06-23T00:31:47.694Z,41.20
2017-06-23T00:34:15.907Z,40.55
2017-06-23T00:36:44.123Z,39.97
2017-06-23T00:39:12.559Z,37.90
2017-06-23T00:41:40.764Z,36.83
2017-06-23T00:44:09.190Z,37.28
2017-06-23T00:46:38.183Z,38.50
2017-06-23T00:49:07.148Z,38.40
2017-06-23T00:51:35.343Z,37.83
2017-06-23T00:54:03.597Z,37.40
2017-06-23T00:56:31.879Z,35.83
2017-06-23T00:59:00.077Z,37.03
2017-06-23T01:01:28.281Z,41.03
2017-06-23T01:03:56.475Z,37.55
2017-06-23T01:06:24.686Z,36.97
2017-06-23T01:08:52.893Z,36.53
2017-06-23T01:11:21.838Z,34.85
2017-06-23T01:13:50.029Z,34.10
2017-06-23T01:16:18.232Z,35.88
2017-06-23T01:18:47.172Z,34.78
2017-06-23T01:21:15.395Z,34.60
2017-06-23T01:23:44.805Z,32.47
2017-06-23T01:26:13.748Z,33.53
2017-06-23T01:28:41.935Z,33.50
2017-06-23T01:31:10.151Z,32.75
2017-06-23T01:33:38.356Z,30.90
2017-06-23T01:36:06.547Z,27.17
2017-06-23T01:38:34.767Z,25.48
2017-06-23T01:41:03.757Z,25.50
2017-06-23T01:43:32.008Z,21.95
2017-06-23T01:46:01.067Z,21.25
2017-06-23T01:48:29.263Z,20.90
2017-06-23T01:50:58.224Z,21.08
2017-06-23T01:53:26.766Z,18.83
2017-06-23T01:55:54.967Z,16.58
2017-06-23T01:58:23.175Z,17.48
2017-06-23T02:00:51.421Z,17.48
2017-06-23T02:03:19.639Z,17.52
2017-06-23T02:05:48.597Z,16.87
2017-06-23T02:08:16.830Z,18.40
2017-06-23T02:10:45.028Z,16.10
2017-06-23T02:13:13.218Z,15.57
2017-06-23T02:15:41.439Z,16.00
2017-06-23T02:18:10.406Z,16.87
2017-06-23T02:20:38.796Z,16.95
2017-06-23T02:23:07.044Z,16.42
2017-06-23T02:25:35.232Z,16.58
2017-06-23T02:28:03.465Z,16.15
2017-06-23T02:30:31.996Z,15.35
2017-06-23T02:33:00.192Z,16.05
2017-06-23T02:35:29.144Z,15.40
2017-06-23T02:37:57.424Z,14.85
2017-06-23T02:40:25.620Z,13.75
2017-06-23T02:42:53.868Z,14.90
2017-06-23T02:45:22.127Z,13.07
2017-06-23T02:47:50.341Z,14.95
2017-06-23T02:50:18.540Z,14.25
2017-06-23T02:52:47.531Z,14.23
2017-06-23T02:55:15.733Z,15.00
2017-06-23T02:57:43.936Z,14.68
2017-06-23T03:00:12.548Z,14.75
2017-06-23T03:02:40.743Z,15.27
2017-06-23T03:05:09.700Z,15.43
2017-06-23T03:07:37.927Z,14.52
2017-06-23T03:10:06.888Z,14.55
2017-06-23T03:12:35.078Z,15.38
2017-06-23T03:15:03.333Z,14.40
2017-06-23T03:17:31.543Z,14.30
2017-06-23T03:20:00.499Z,13.02
2017-06-23T03:22:28.719Z,14.75
2017-06-23T03:24:56.946Z,12.98
2017-06-23T03:27:25.137Z,12.77
2017-06-23T03:29:53.375Z,14.43
2017-06-23T03:32:21.582Z,13.27
2017-06-23T03:34:49.790Z,14.63
2017-06-23T03:37:18.008Z,13.65
2017-06-23T03:39:46.967Z,13.80
2017-06-23T03:42:15.175Z,13.07
2017-06-23T03:44:44.149Z,15.40
2017-06-23T03:47:12.343Z,11.80
2017-06-23T03:49:40.530Z,11.88
2017-06-23T03:52:08.740Z,13.32
2017-06-23T03:54:36.947Z,13.55
2017-06-23T03:57:05.908Z,12.70
2017-06-23T03:59:34.127Z,14.55
2017-06-23T04:02:02.326Z,12.43
2017-06-23T04:04:30.553Z,11.27
2017-06-23T04:06:59.556Z,14.07
2017-06-23T04:09:28.519Z,11.30
2017-06-23T04:11:56.693Z,11.00
2017-06-23T04:14:24.937Z,11.32
2017-06-23T04:16:53.897Z,11.60
2017-06-23T04:19:22.078Z,10.75
2017-06-23T04:21:50.295Z,11.63
2017-06-23T04:24:19.279Z,10.18
2017-06-23T04:26:47.476Z,9.95
2017-06-23T04:29:15.709Z,12.85
2017-06-23T04:31:43.885Z,10.55
2017-06-23T04:34:12.072Z,10.10
2017-06-23T04:36:40.348Z,11.75
2017-06-23T04:39:08.549Z,11.55
2017-06-23T04:41:36.739Z,13.90
2017-06-23T04:44:04.998Z,9.57
2017-06-23T04:46:33.217Z,11.20
2017-06-23T04:49:01.413Z,12.40
2017-06-23T04:51:29.613Z,12.90
2017-06-23T04:53:58.606Z,13.95
2017-06-23T04:56:26.809Z,11.00
2017-06-23T04:58:56.034Z,11.50
2017-06-23T05:01:24.215Z,11.70
2017-06-23T05:03:52.402Z,11.52
2017-06-23T05:06:20.620Z,9.85
2017-06-23T05:08:48.797Z,12.30
2017-06-23T05:11:16.993Z,12.40
2017-06-23T05:13:45.752Z,9.60
2017-06-23T05:16:13.951Z,10.43
2017-06-23T05:18:42.130Z,14.45
2017-06-23T05:21:10.359Z,10.05
2017-06-23T05:23:38.571Z,10.45
2017-06-23T05:26:06.759Z,10.25
2017-06-23T05:28:34.991Z,10.98
2017-06-23T05:31:03.942Z,9.73
2017-06-23T05:33:32.146Z,10.70
2017-06-23T05:36:00.385Z,11.30
2017-06-23T05:38:28.573Z,10.65
2017-06-23T05:40:56.759Z,9.57
2017-06-23T05:43:24.957Z,10.02
2017-06-23T05:45:53.157Z,10.00
2017-06-23T05:48:21.347Z,10.63
2017-06-23T05:50:49.873Z,11.68
2017-06-23T05:53:18.048Z,11.00
2017-06-23T05:55:46.234Z,11.23
2017-06-23T05:58:14.460Z,11.35
2017-06-23T06:00:42.659Z,10.88
2017-06-23T06:03:10.850Z,11.63
2017-06-23T06:05:39.076Z,11.05
2017-06-23T06:08:07.250Z,10.77
2017-06-23T06:10:35.456Z,11.27
2017-06-23T06:13:03.677Z,13.55
2017-06-23T06:15:32.623Z,12.88
2017-06-23T06:18:00.812Z,13.35
2017-06-23T06:20:29.032Z,13.02
2017-06-23T06:22:57.213Z,13.82
2017-06-23T06:25:25.414Z,14.43
2017-06-23T06:27:53.627Z,13.57
2017-06-23T06:30:21.835Z,15.52
2017-06-23T06:32:50.050Z,13.23
2017-06-23T06:35:18.951Z,14.65
2017-06-23T06:37:48.679Z,13.60
2017-06-23T06:40:16.886Z,15.77
2017-06-23T06:42:46.079Z,15.75
2017-06-23T06:45:15.593Z,17.67
2017-06-23T06:47:43.789Z,14.38
2017-06-23T06:50:11.992Z,15.00
2017-06-23T06:52:40.179Z,15.13
2017-06-23T06:55:08.372Z,15.70
2017-06-23T06:57:37.399Z,14.80
2017-06-23T07:00:05.603Z,13.40
2017-06-23T07:02:33.797Z,12.37
2017-06-23T07:05:03.621Z,14.05
2017-06-23T07:07:31.792Z,12.73
2017-06-23T07:09:59.989Z,12.93
2017-06-23T07:12:29.003Z,14.50
2017-06-23T07:14:57.191Z,13.93
2017-06-23T07:17:25.383Z,13.00
2017-06-23T07:19:53.631Z,14.55
2017-06-23T07:22:21.816Z,14.80
2017-06-23T07:24:50.019Z,15.18
2017-06-23T07:27:18.255Z,14.00
2017-06-23T07:29:46.457Z,13.75
2017-06-23T07:32:14.666Z,13.45
2017-06-23T07:34:42.915Z,14.70
2017-06-23T07:37:11.084Z,13.90
2017-06-23T07:39:39.279Z,15.02
2017-06-23T07:42:07.511Z,16.10
2017-06-23T07:44:35.703Z,13.73
2017-06-23T07:47:03.907Z,12.98
2017-06-23T07:49:32.147Z,12.23
2017-06-23T07:52:00.346Z,12.70
2017-06-23T07:54:28.525Z,13.18
2017-06-23T07:56:56.752Z,13.10
2017-06-23T07:59:24.960Z,14.80
2017-06-23T08:01:53.133Z,20.23
2017-06-23T08:04:21.374Z,14.77
2017-06-23T08:06:49.603Z,14.35
2017-06-23T08:09:17.795Z,14.43
2017-06-23T08:11:46.044Z,14.65
2017-06-23T08:14:14.255Z,14.23
2017-06-23T08:16:43.208Z,13.70
2017-06-23T08:19:11.419Z,15.02
2017-06-23T08:21:39.601Z,13.02
2017-06-23T08:24:08.557Z,14.65
2017-06-23T08:26:36.757Z,11.75
2017-06-23T08:29:04.978Z,11.15
2017-06-23T08:31:33.172Z,13.43
2017-06-23T08:34:01.424Z,12.63
2017-06-23T08:36:29.603Z,12.95
2017-06-23T08:38:57.791Z,10.45
2017-06-23T08:41:26.019Z,11.12
2017-06-23T08:43:55.001Z,12.10
2017-06-23T08:46:23.181Z,10.80
2017-06-23T08:48:51.385Z,10.35
2017-06-23T08:51:19.581Z,9.25
2017-06-23T08:53:47.764Z,10.15
2017-06-23T08:56:15.980Z,10.57
2017-06-23T08:58:44.168Z,9.65
2017-06-23T09:01:13.112Z,10.85
2017-06-23T09:03:41.353Z,10.60
2017-06-23T09:06:09.565Z,9.10
2017-06-23T09:08:37.763Z,10.85
2017-06-23T09:11:05.980Z,10.02
2017-06-23T09:13:34.167Z,9.60
2017-06-23T09:16:02.365Z,11.30
2017-06-23T09:18:31.634Z,10.63
2017-06-23T09:20:59.831Z,10.75
2017-06-23T09:23:28.033Z,10.80
2017-06-23T09:25:56.256Z,10.27
2017-06-23T09:28:24.455Z,10.60
2017-06-23T09:30:52.646Z,9.93
2017-06-23T09:33:20.875Z,12.02
2017-06-23T09:35:49.835Z,11.38
2017-06-23T09:38:18.042Z,9.50
2017-06-23T09:40:47.031Z,9.13
2017-06-23T09:43:15.245Z,9.68
2017-06-23T09:45:43.432Z,9.27
2017-06-23T09:48:11.680Z,10.02
2017-06-23T09:50:39.876Z,10.25
2017-06-23T09:53:08.110Z,10.10
2017-06-23T09:55:37.118Z,9.98
2017-06-23T09:58:05.303Z,9.05
2017-06-23T10:00:33.477Z,8.90
2017-06-23T10:03:01.701Z,9.55
2017-06-23T10:05:29.892Z,10.27
2017-06-23T10:07:58.126Z,9.32
2017-06-23T10:10:26.352Z,7.68
2017-06-23T10:12:55.326Z,9.32
2017-06-23T10:15:23.502Z,7.85
2017-06-23T10:17:51.719Z,8.27
2017-06-23T10:20:19.953Z,7.78
2017-06-23T10:22:48.169Z,7.07
2017-06-23T10:25:16.404Z,7.72
2017-06-23T10:27:44.610Z,8.45
2017-06-23T10:30:13.574Z,7.75
2017-06-23T10:32:41.803Z,7.30
2017-06-23T10:35:09.972Z,8.02
2017-06-23T10:37:38.190Z,8.32
2017-06-23T10:40:06.415Z,7.25
2017-06-23T10:42:34.584Z,7.72
2017-06-23T10:45:02.785Z,6.90
2017-06-23T10:47:30.991Z,7.25
2017-06-23T10:49:59.172Z,7.30
2017-06-23T10:52:27.403Z,6.78
2017-06-23T10:54:55.638Z,6.25
2017-06-23T10:57:23.809Z,6.75
2017-06-23T10:59:51.978Z,5.20
2017-06-23T11:02:20.208Z,5.35
2017-06-23T11:04:48.423Z,4.95
2017-06-23T11:07:16.615Z,4.80
2017-06-23T11:09:45.611Z,5.00
2017-06-23T11:12:14.588Z,4.85
2017-06-23T11:14:42.807Z,5.75
2017-06-23T11:17:11.358Z,5.03
2017-06-23T11:19:39.558Z,6.50
2017-06-23T11:22:07.767Z,6.47
2017-06-23T11:24:35.994Z,6.10
2017-06-23T11:27:04.962Z,5.32
2017-06-23T11:29:33.128Z,6.12
2017-06-23T11:32:01.374Z,5.45
2017-06-23T11:34:32.499Z,5.28
2017-06-23T11:37:00.701Z,4.95
2017-06-23T11:39:28.935Z,4.70
2017-06-23T11:41:57.899Z,4.75
2017-06-23T11:44:26.114Z,4.57
2017-06-23T11:46:54.333Z,4.60
2017-06-23T11:49:22.501Z,4.30
2017-06-23T11:51:50.705Z,4.47
2017-06-23T11:54:18.921Z,4.37
2017-06-23T11:56:47.102Z,4.70
2017-06-23T11:59:15.287Z,5.10
2017-06-23T12:01:43.504Z,4.57
2017-06-23T12:04:11.685Z,4.70
2017-06-23T12:06:39.867Z,4.35
2017-06-23T12:09:08.208Z,4.90
2017-06-23T12:11:36.380Z,5.20
2017-06-23T12:14:04.562Z,5.28
2017-06-23T12:16:32.795Z,6.35
2017-06-23T12:19:00.984Z,6.28
2017-06-23T12:21:29.157Z,5.32
2017-06-23T12:23:57.427Z,8.18
2017-06-23T12:26:25.631Z,5.10
2017-06-23T12:28:53.802Z,4.53
2017-06-23T12:31:22.016Z,5.05
2017-06-23T12:33:50.203Z,4.93
2017-06-23T12:36:19.163Z,4.40
2017-06-23T12:38:47.378Z,4.95
2017-06-23T12:41:16.327Z,4.62
2017-06-23T12:43:44.504Z,4.35
2017-06-23T12:46:12.724Z,5.78
2017-06-23T12:48:41.663Z,5.18
2017-06-23T12:51:09.840Z,4.72
2017-06-23T12:53:38.070Z,4.97
2017-06-23T12:56:07.044Z,5.10
2017-06-23T12:58:35.239Z,5.37
2017-06-23T13:01:04.226Z,4.93
2017-06-23T13:03:33.188Z,4.87
2017-06-23T13:06:01.431Z,5.37
2017-06-23T13:08:29.652Z,4.97
2017-06-23T13:10:57.840Z,5.53
2017-06-23T13:13:26.031Z,4.87
2017-06-23T13:15:54.260Z,4.87
2017-06-23T13:18:22.439Z,5.87
2017-06-23T13:20:50.626Z,5.62
2017-06-23T13:23:19.652Z,5.35
2017-06-23T13:25:48.603Z,6.00
2017-06-23T13:28:16.788Z,6.00
2017-06-23T13:30:45.005Z,6.32
2017-06-23T13:33:13.219Z,6.12
2017-06-23T13:35:41.442Z,6.70
2017-06-23T13:38:10.437Z,6.70
2017-06-23T13:40:39.374Z,6.10
2017-06-23T13:43:07.578Z,5.97
2017-06-23T13:45:35.799Z,6.12
2017-06-23T13:48:03.987Z,6.60
2017-06-23T13:50:32.195Z,6.97
2017-06-23T13:53:00.433Z,6.97
2017-06-23T13:55:28.626Z,6.68
2017-06-23T13:57:56.788Z,7.90
2017-06-23T14:00:25.043Z,9.18
2017-06-23T14:02:53.227Z,7.55
2017-06-23T14:05:21.408Z,7.05
2017-06-23T14:07:49.628Z,7.40
2017-06-23T14:10:17.798Z,6.80
2017-06-23T14:12:45.984Z,8.00
2017-06-23T14:15:14.206Z,7.60
2017-06-23T14:17:42.406Z,7.55
2017-06-23T14:20:10.587Z,7.35
2017-06-23T14:22:38.807Z,7.70
2017-06-23T14:25:07.785Z,7.60
2017-06-23T14:27:35.971Z,7.80
2017-06-23T14:30:04.965Z,7.72
2017-06-23T14:32:33.897Z,7.78
2017-06-23T14:35:02.106Z,7.90
2017-06-23T14:37:30.406Z,7.70
2017-06-23T14:39:59.360Z,7.78
2017-06-23T14:42:27.567Z,7.45
2017-06-23T14:44:55.790Z,10.45
2017-06-23T14:47:23.975Z,7.93
2017-06-23T14:49:52.158Z,7.45
2017-06-23T14:52:20.388Z,8.65
2017-06-23T14:54:49.349Z,8.25
2017-06-23T14:57:17.532Z,7.43
2017-06-23T14:59:45.795Z,8.48
2017-06-23T15:02:13.983Z,9.10
2017-06-23T15:04:42.145Z,8.40
2017-06-23T15:07:10.367Z,8.52
2017-06-23T15:09:38.560Z,8.15
2017-06-23T15:12:06.762Z,8.60
2017-06-23T15:14:34.994Z,8.65
2017-06-23T15:17:03.187Z,8.20
2017-06-23T15:19:31.372Z,8.52
2017-06-23T15:21:59.590Z,8.88
2017-06-23T15:24:27.772Z,9.00
2017-06-23T15:26:56.732Z,9.65
2017-06-23T15:29:24.947Z,9.32
2017-06-23T15:31:53.900Z,9.50
2017-06-23T15:34:22.088Z,10.50
2017-06-23T15:36:50.297Z,10.23
2017-06-23T15:39:19.244Z,9.93
2017-06-23T15:41:47.431Z,9.98
2017-06-23T15:44:15.633Z,9.70
2017-06-23T15:46:44.587Z,10.20
2017-06-23T15:49:12.775Z,9.10
2017-06-23T15:51:41.014Z,8.27
2017-06-23T15:54:09.199Z,7.05
2017-06-23T15:56:37.376Z,7.72
2017-06-23T15:59:05.571Z,6.32
2017-06-23T16:01:33.741Z,8.02
2017-06-23T16:04:01.929Z,6.57
2017-06-23T16:06:30.151Z,7.78
2017-06-23T16:08:58.348Z,7.82
2017-06-23T16:11:26.528Z,7.85
2017-06-23T16:13:54.771Z,9.38
2017-06-23T16:16:22.971Z,10.90
2017-06-23T16:18:51.182Z,10.45
2017-06-23T16:21:19.430Z,9.10
2017-06-23T16:23:47.632Z,10.02
2017-06-23T16:26:15.863Z,7.85
2017-06-23T16:28:44.103Z,9.70
2017-06-23T16:31:13.072Z,9.45
2017-06-23T16:33:41.265Z,8.40
2017-06-23T16:36:09.461Z,9.98
2017-06-23T16:38:37.641Z,9.02
2017-06-23T16:41:05.817Z,9.38
2017-06-23T16:43:34.016Z,9.57
2017-06-23T16:46:02.209Z,9.20
2017-06-23T16:48:30.385Z,11.75
2017-06-23T16:50:58.608Z,9.10
2017-06-23T16:53:27.537Z,7.78
2017-06-23T16:55:55.740Z,7.97
2017-06-23T16:58:23.968Z,8.95
2017-06-23T17:00:52.161Z,8.23
2017-06-23T17:03:20.340Z,8.88
2017-06-23T17:05:48.560Z,7.93
2017-06-23T17:08:17.512Z,8.38
2017-06-23T17:10:45.679Z,8.00
2017-06-23T17:13:13.903Z,8.38
2017-06-23T17:15:42.856Z,7.62
2017-06-23T17:18:11.049Z,8.82
2017-06-23T17:20:39.262Z,9.07
2017-06-23T17:23:08.215Z,8.95
2017-06-23T17:25:36.392Z,9.18
2017-06-23T17:28:04.609Z,8.20
2017-06-23T17:30:32.791Z,9.95
2017-06-23T17:33:00.995Z,9.18
2017-06-23T17:35:29.215Z,8.20
2017-06-23T17:37:58.161Z,10.07
2017-06-23T17:40:26.350Z,10.60
2017-06-23T17:42:54.553Z,10.40
2017-06-23T17:45:22.748Z,12.63
2017-06-23T17:47:50.970Z,12.50
2017-06-23T17:50:19.577Z,8.57
2017-06-23T17:52:47.807Z,11.65
2017-06-23T17:55:16.003Z,11.00
2017-06-23T17:57:44.226Z,9.40
2017-06-23T18:00:13.195Z,9.13
2017-06-23T18:02:41.368Z,11.98
2017-06-23T18:05:09.589Z,9.88
2017-06-23T18:07:37.771Z,9.57
2017-06-23T18:10:05.944Z,9.55
2017-06-23T18:12:34.170Z,10.27
2017-06-23T18:15:03.129Z,9.20
2017-06-23T18:17:31.321Z,10.15
2017-06-23T18:19:59.567Z,8.38
2017-06-23T18:22:27.759Z,11.12
2017-06-23T18:24:55.952Z,11.45
2017-06-23T18:27:24.162Z,10.90
2017-06-23T18:29:52.364Z,11.00
2017-06-23T18:32:20.561Z,14.02
2017-06-23T18:34:48.787Z,10.77
2017-06-23T18:37:16.985Z,10.50
2017-06-23T18:39:45.214Z,12.07
2017-06-23T18:42:14.196Z,11.93
2017-06-23T18:44:42.393Z,11.77
2017-06-23T18:47:11.337Z,13.60
2017-06-23T18:49:39.577Z,15.00
2017-06-23T18:52:07.748Z,12.75
2017-06-23T18:54:35.936Z,15.68
2017-06-23T18:57:04.182Z,13.52
2017-06-23T18:59:33.143Z,13.35
2017-06-23T19:02:01.321Z,16.20
2017-06-23T19:04:29.529Z,15.68
2017-06-23T19:06:58.502Z,12.02
2017-06-23T19:09:26.734Z,26.60
2017-06-23T19:11:55.068Z,15.55
2017-06-23T19:14:24.039Z,15.45
2017-06-23T19:16:52.983Z,12.02
2017-06-23T19:19:21.227Z,12.63
2017-06-23T19:21:50.203Z,13.15
2017-06-23T19:24:18.411Z,13.52
2017-06-23T19:26:46.650Z,12.52
2017-06-23T19:29:14.859Z,14.33
2017-06-23T19:31:43.805Z,13.70
2017-06-23T19:34:12.042Z,14.10
2017-06-23T19:36:40.236Z,13.20
2017-06-23T19:39:08.436Z,13.23
2017-06-23T19:41:36.705Z,13.98
2017-06-23T19:44:04.901Z,14.23
2017-06-23T19:46:33.097Z,12.82
2017-06-23T19:49:02.084Z,11.98
2017-06-23T19:51:30.276Z,10.90
2017-06-23T19:53:59.255Z,12.20
2017-06-23T19:56:27.503Z,11.27
2017-06-23T19:58:55.696Z,11.55
2017-06-23T20:01:23.910Z,10.30
2017-06-23T20:03:52.150Z,10.48
2017-06-23T20:06:20.400Z,11.02
2017-06-23T20:08:48.579Z,11.35
2017-06-23T20:11:16.814Z,12.27
2017-06-23T20:13:45.023Z,11.20
2017-06-23T20:16:13.242Z,10.40
2017-06-23T20:18:42.253Z,10.50
2017-06-23T20:21:10.448Z,11.55
2017-06-23T20:23:38.624Z,10.77
2017-06-23T20:26:06.851Z,10.20
2017-06-23T20:28:35.810Z,10.88
2017-06-23T20:31:03.990Z,11.00
2017-06-23T20:33:33.007Z,10.35
2017-06-23T20:36:01.189Z,10.93
2017-06-23T20:38:29.402Z,10.95
2017-06-23T20:40:57.616Z,11.43
2017-06-23T20:43:26.561Z,11.98
2017-06-23T20:45:54.759Z,10.63
2017-06-23T20:48:22.962Z,10.85
2017-06-23T20:50:51.942Z,11.20
2017-06-23T20:53:20.906Z,16.70
2017-06-23T20:55:49.163Z,10.38
2017-06-23T20:58:17.363Z,12.60
2017-06-23T21:00:45.536Z,11.95
2017-06-23T21:03:13.766Z,15.75
2017-06-23T21:05:41.964Z,12.20
2017-06-23T21:08:10.185Z,25.00
2017-06-23T21:10:38.413Z,13.32
2017-06-23T21:13:06.581Z,13.50
2017-06-23T21:15:34.808Z,16.83
2017-06-23T21:18:03.035Z,16.75
2017-06-23T21:20:31.205Z,13.52
2017-06-23T21:22:59.423Z,14.63
2017-06-23T21:25:28.649Z,14.15
2017-06-23T21:27:56.841Z,13.02
2017-06-23T21:30:25.048Z,14.50
2017-06-23T21:32:53.278Z,13.32
2017-06-23T21:35:22.238Z,13.60
2017-06-23T21:37:50.429Z,13.15
2017-06-23T21:40:36.732Z,15.30
2017-06-23T21:43:04.936Z,14.57
2017-06-23T21:45:33.113Z,12.73
2017-06-23T21:48:01.370Z,14.02
2017-06-23T21:50:30.333Z,13.98
2017-06-23T21:52:58.536Z,14.45
2017-06-23T21:55:26.739Z,14.63
2017-06-23T21:57:54.949Z,14.15
2017-06-23T22:00:23.139Z,14.23
2017-06-23T22:02:51.353Z,14.52
2017-06-23T22:05:20.318Z,12.70
2017-06-23T22:07:48.522Z,13.35
2017-06-23T22:10:17.496Z,13.25
2017-06-23T22:12:45.720Z,14.82
2017-06-23T22:15:13.928Z,15.25
2017-06-23T22:17:42.147Z,14.48
2017-06-23T22:20:10.347Z,13.95
2017-06-23T22:22:38.559Z,14.68
2017-06-23T22:25:06.786Z,14.30
2017-06-23T22:27:34.983Z,14.95
2017-06-23T22:30:03.162Z,14.40
2017-06-23T22:32:31.400Z,13.45
2017-06-23T22:35:00.374Z,16.05
2017-06-23T22:37:29.322Z,14.27
2017-06-23T22:39:57.542Z,14.18
2017-06-23T22:42:26.569Z,14.75
2017-06-23T22:44:54.745Z,13.35
2017-06-23T22:47:22.982Z,13.73
2017-06-23T22:49:51.156Z,13.27
2017-06-23T22:52:19.333Z,14.55
2017-06-23T22:54:47.561Z,13.85
2017-06-23T22:57:15.769Z,13.95
2017-06-23T22:59:43.967Z,12.93
2017-06-23T23:02:12.198Z,15.27
2017-06-23T23:04:40.374Z,14.57
2017-06-23T23:07:08.566Z,14.63
2017-06-23T23:09:36.794Z,14.32
2017-06-23T23:12:04.994Z,14.45
2017-06-23T23:14:33.169Z,14.38
2017-06-23T23:17:01.403Z,15.35
2017-06-23T23:19:30.347Z,15.77
2017-06-23T23:21:58.520Z,15.73
2017-06-23T23:24:26.735Z,14.32
2017-06-23T23:26:55.683Z,15.23
2017-06-23T23:29:23.876Z,14.85
2017-06-23T23:31:52.127Z,15.82
2017-06-23T23:34:20.301Z,17.50
2017-06-23T23:36:48.509Z,17.62
2017-06-23T23:39:16.730Z,15.23
2017-06-23T23:41:44.937Z,15.15
2017-06-23T23:44:13.148Z,17.92
2017-06-23T23:46:41.388Z,14.13
2017-06-23T23:49:09.598Z,14.85
2017-06-23T23:51:37.777Z,14.85
2017-06-23T23:54:05.991Z,15.43
2017-06-23T23:56:34.185Z,14.90
2017-06-23T23:59:02.384Z,14.57
